<?xml version="1.0" encoding="UTF-8" standalone="no" ?>
<gpx xmlns="http://www.topografix.com/GPX/1/1" xmlns:xsi="http://www.w3.org/2001/XMLSchema-instance" xsi:schemaLocation="http://www.topografix.com/GPX/1/1 http://www.topografix.com/GPX/1/1/gpx.xsd" version="1.1" creator="VisuGPX - https://www.visugpx.com">
  <metadata>
    <name>ChailléOrmeaux_Boucles_19km</name>
    <desc><![CDATA[gnerando idor:6553433_6553489_6956451_7846715_7847315_8111388_8144845]]></desc>
  </metadata>
  <trk>
    <name><![CDATA[Chaille_NeflierAulne_20km-8144845]]></name>
    <extensions>
      <line xmlns="http://www.topografix.com/GPX/gpx_style/0/2">
        <color>FF00FF</color>
        <width>4</width>
      </line>
    </extensions>
    <trkseg>
      <trkpt lat="46.60564" lon="-1.39359">
        <ele>36</ele>
        <time>2023-11-05T17:56:14Z</time>
      </trkpt>
      <trkpt lat="46.60614" lon="-1.39372">
        <ele>36</ele>
        <time>2023-11-05T17:57:22Z</time>
      </trkpt>
      <trkpt lat="46.6062" lon="-1.39247">
        <ele>36</ele>
        <time>2023-11-05T17:59:17Z</time>
      </trkpt>
      <trkpt lat="46.60543" lon="-1.39264">
        <ele>36</ele>
        <time>2023-11-05T18:01:01Z</time>
      </trkpt>
      <trkpt lat="46.60458" lon="-1.39097">
        <ele>35</ele>
        <time>2023-11-05T18:04:11Z</time>
      </trkpt>
      <trkpt lat="46.60266" lon="-1.38994">
        <ele>49</ele>
        <time>2023-11-05T18:08:44Z</time>
      </trkpt>
      <trkpt lat="46.6029" lon="-1.38852">
        <ele>46</ele>
        <time>2023-11-05T18:10:58Z</time>
      </trkpt>
      <trkpt lat="46.60419" lon="-1.38578">
        <ele>40</ele>
        <time>2023-11-05T18:16:03Z</time>
      </trkpt>
      <trkpt lat="46.60372" lon="-1.385">
        <ele>40</ele>
        <time>2023-11-05T18:17:38Z</time>
      </trkpt>
      <trkpt lat="46.60352" lon="-1.38359">
        <ele>37</ele>
        <time>2023-11-05T18:19:50Z</time>
      </trkpt>
      <trkpt lat="46.60245" lon="-1.38213">
        <ele>35</ele>
        <time>2023-11-05T18:23:06Z</time>
      </trkpt>
      <trkpt lat="46.6029" lon="-1.3799">
        <ele>34</ele>
        <time>2023-11-05T18:26:39Z</time>
      </trkpt>
      <trkpt lat="46.60231" lon="-1.37964">
        <ele>34</ele>
        <time>2023-11-05T18:28:01Z</time>
      </trkpt>
      <trkpt lat="46.60243" lon="-1.379">
        <ele>33</ele>
        <time>2023-11-05T18:29:02Z</time>
      </trkpt>
      <trkpt lat="46.60184" lon="-1.37878">
        <ele>31</ele>
        <time>2023-11-05T18:30:23Z</time>
      </trkpt>
      <trkpt lat="46.6016" lon="-1.37651">
        <ele>38</ele>
        <time>2023-11-05T18:33:54Z</time>
      </trkpt>
      <trkpt lat="46.60039" lon="-1.37754">
        <ele>34</ele>
        <time>2023-11-05T18:37:01Z</time>
      </trkpt>
      <trkpt lat="46.59918" lon="-1.37861">
        <ele>32</ele>
        <time>2023-11-05T18:40:10Z</time>
      </trkpt>
      <trkpt lat="46.59812" lon="-1.37891">
        <ele>31</ele>
        <time>2023-11-05T18:42:34Z</time>
      </trkpt>
      <trkpt lat="46.59744" lon="-1.3796">
        <ele>33</ele>
        <time>2023-11-05T18:44:24Z</time>
      </trkpt>
      <trkpt lat="46.59614" lon="-1.37925">
        <ele>33</ele>
        <time>2023-11-05T18:47:21Z</time>
      </trkpt>
      <trkpt lat="46.59558" lon="-1.37857">
        <ele>33</ele>
        <time>2023-11-05T18:48:58Z</time>
      </trkpt>
      <trkpt lat="46.59464" lon="-1.37805">
        <ele>39</ele>
        <time>2023-11-05T18:51:12Z</time>
      </trkpt>
      <trkpt lat="46.59408" lon="-1.37664">
        <ele>37</ele>
        <time>2023-11-05T18:53:42Z</time>
      </trkpt>
      <trkpt lat="46.59367" lon="-1.37672">
        <ele>43</ele>
        <time>2023-11-05T18:54:37Z</time>
      </trkpt>
      <trkpt lat="46.59331" lon="-1.37741">
        <ele>48</ele>
        <time>2023-11-05T18:55:56Z</time>
      </trkpt>
      <trkpt lat="46.59243" lon="-1.37629">
        <ele>47</ele>
        <time>2023-11-05T18:58:32Z</time>
      </trkpt>
      <trkpt lat="46.59075" lon="-1.37599">
        <ele>47</ele>
        <time>2023-11-05T19:02:18Z</time>
      </trkpt>
      <trkpt lat="46.59031" lon="-1.37689">
        <ele>52</ele>
        <time>2023-11-05T19:04:00Z</time>
      </trkpt>
      <trkpt lat="46.58951" lon="-1.37569">
        <ele>47</ele>
        <time>2023-11-05T19:06:33Z</time>
      </trkpt>
      <trkpt lat="46.58809" lon="-1.375">
        <ele>39</ele>
        <time>2023-11-05T19:09:53Z</time>
      </trkpt>
      <trkpt lat="46.58733" lon="-1.37518">
        <ele>46</ele>
        <time>2023-11-05T19:11:35Z</time>
      </trkpt>
      <trkpt lat="46.58659" lon="-1.37492">
        <ele>54</ele>
        <time>2023-11-05T19:13:17Z</time>
      </trkpt>
      <trkpt lat="46.58647" lon="-1.37286">
        <ele>55</ele>
        <time>2023-11-05T19:16:27Z</time>
      </trkpt>
      <trkpt lat="46.58612" lon="-1.37063">
        <ele>52</ele>
        <time>2023-11-05T19:19:56Z</time>
      </trkpt>
      <trkpt lat="46.58538" lon="-1.36977">
        <ele>47</ele>
        <time>2023-11-05T19:22:03Z</time>
      </trkpt>
      <trkpt lat="46.58588" lon="-1.36749">
        <ele>40</ele>
        <time>2023-11-05T19:25:42Z</time>
      </trkpt>
      <trkpt lat="46.58603" lon="-1.36561">
        <ele>36</ele>
        <time>2023-11-05T19:28:36Z</time>
      </trkpt>
      <trkpt lat="46.58523" lon="-1.36531">
        <ele>38</ele>
        <time>2023-11-05T19:30:26Z</time>
      </trkpt>
      <trkpt lat="46.58644" lon="-1.36458">
        <ele>34</ele>
        <time>2023-11-05T19:33:21Z</time>
      </trkpt>
      <trkpt lat="46.58712" lon="-1.36496">
        <ele>33</ele>
        <time>2023-11-05T19:34:58Z</time>
      </trkpt>
      <trkpt lat="46.58724" lon="-1.36582">
        <ele>33</ele>
        <time>2023-11-05T19:36:19Z</time>
      </trkpt>
      <trkpt lat="46.5878" lon="-1.36535">
        <ele>31</ele>
        <time>2023-11-05T19:37:45Z</time>
      </trkpt>
      <trkpt lat="46.58842" lon="-1.36608">
        <ele>32</ele>
        <time>2023-11-05T19:39:31Z</time>
      </trkpt>
      <trkpt lat="46.58836" lon="-1.36707">
        <ele>32</ele>
        <time>2023-11-05T19:41:02Z</time>
      </trkpt>
      <trkpt lat="46.58892" lon="-1.36754">
        <ele>34</ele>
        <time>2023-11-05T19:42:29Z</time>
      </trkpt>
      <trkpt lat="46.58969" lon="-1.36694">
        <ele>42</ele>
        <time>2023-11-05T19:44:25Z</time>
      </trkpt>
      <trkpt lat="46.58983" lon="-1.36762">
        <ele>39</ele>
        <time>2023-11-05T19:45:30Z</time>
      </trkpt>
      <trkpt lat="46.58954" lon="-1.36827">
        <ele>36</ele>
        <time>2023-11-05T19:46:41Z</time>
      </trkpt>
      <trkpt lat="46.5901" lon="-1.3696">
        <ele>34</ele>
        <time>2023-11-05T19:49:04Z</time>
      </trkpt>
      <trkpt lat="46.59101" lon="-1.36981">
        <ele>39</ele>
        <time>2023-11-05T19:51:07Z</time>
      </trkpt>
      <trkpt lat="46.5929" lon="-1.36981">
        <ele>47</ele>
        <time>2023-11-05T19:55:20Z</time>
      </trkpt>
      <trkpt lat="46.59411" lon="-1.3714">
        <ele>49</ele>
        <time>2023-11-05T19:58:57Z</time>
      </trkpt>
      <trkpt lat="46.59547" lon="-1.3726">
        <ele>54</ele>
        <time>2023-11-05T20:02:29Z</time>
      </trkpt>
      <trkpt lat="46.59682" lon="-1.3729">
        <ele>55</ele>
        <time>2023-11-05T20:05:32Z</time>
      </trkpt>
      <trkpt lat="46.59797" lon="-1.37273">
        <ele>60</ele>
        <time>2023-11-05T20:08:06Z</time>
      </trkpt>
      <trkpt lat="46.59945" lon="-1.37294">
        <ele>63</ele>
        <time>2023-11-05T20:11:24Z</time>
      </trkpt>
      <trkpt lat="46.60077" lon="-1.3735">
        <ele>68</ele>
        <time>2023-11-05T20:14:28Z</time>
      </trkpt>
      <trkpt lat="46.60207" lon="-1.37342">
        <ele>65</ele>
        <time>2023-11-05T20:17:21Z</time>
      </trkpt>
      <trkpt lat="46.60417" lon="-1.37402">
        <ele>53</ele>
        <time>2023-11-05T20:22:07Z</time>
      </trkpt>
      <trkpt lat="46.6049" lon="-1.37436">
        <ele>48</ele>
        <time>2023-11-05T20:23:49Z</time>
      </trkpt>
      <trkpt lat="46.60549" lon="-1.37505">
        <ele>45</ele>
        <time>2023-11-05T20:25:30Z</time>
      </trkpt>
      <trkpt lat="46.60552" lon="-1.37659">
        <ele>41</ele>
        <time>2023-11-05T20:27:52Z</time>
      </trkpt>
      <trkpt lat="46.60608" lon="-1.37779">
        <ele>39</ele>
        <time>2023-11-05T20:30:05Z</time>
      </trkpt>
      <trkpt lat="46.60664" lon="-1.3796">
        <ele>35</ele>
        <time>2023-11-05T20:33:07Z</time>
      </trkpt>
      <trkpt lat="46.60702" lon="-1.38076">
        <ele>36</ele>
        <time>2023-11-05T20:35:04Z</time>
      </trkpt>
      <trkpt lat="46.60717" lon="-1.38191">
        <ele>35</ele>
        <time>2023-11-05T20:36:52Z</time>
      </trkpt>
      <trkpt lat="46.60779" lon="-1.38264">
        <ele>37</ele>
        <time>2023-11-05T20:38:38Z</time>
      </trkpt>
      <trkpt lat="46.60806" lon="-1.38552">
        <ele>37</ele>
        <time>2023-11-05T20:43:05Z</time>
      </trkpt>
      <trkpt lat="46.60938" lon="-1.38573">
        <ele>46</ele>
        <time>2023-11-05T20:46:02Z</time>
      </trkpt>
      <trkpt lat="46.60838" lon="-1.38861">
        <ele>39</ele>
        <time>2023-11-05T20:50:58Z</time>
      </trkpt>
      <trkpt lat="46.60676" lon="-1.39071">
        <ele>35</ele>
        <time>2023-11-05T20:55:47Z</time>
      </trkpt>
      <trkpt lat="46.60585" lon="-1.39247">
        <ele>36</ele>
        <time>2023-11-05T20:59:09Z</time>
      </trkpt>
      <trkpt lat="46.60573" lon="-1.39427">
        <ele>37</ele>
        <time>2023-11-05T21:01:55Z</time>
      </trkpt>
      <trkpt lat="46.6047" lon="-1.39496">
        <ele>41</ele>
        <time>2023-11-05T21:04:26Z</time>
      </trkpt>
      <trkpt lat="46.60331" lon="-1.39449">
        <ele>48</ele>
        <time>2023-11-05T21:07:37Z</time>
      </trkpt>
      <trkpt lat="46.60145" lon="-1.39595">
        <ele>57</ele>
        <time>2023-11-05T21:12:19Z</time>
      </trkpt>
      <trkpt lat="46.5947" lon="-1.39766">
        <ele>54</ele>
        <time>2023-11-05T21:27:33Z</time>
      </trkpt>
      <trkpt lat="46.59379" lon="-1.39934">
        <ele>60</ele>
        <time>2023-11-05T21:30:49Z</time>
      </trkpt>
      <trkpt lat="46.59205" lon="-1.39947">
        <ele>63</ele>
        <time>2023-11-05T21:34:42Z</time>
      </trkpt>
      <trkpt lat="46.59022" lon="-1.39994">
        <ele>62</ele>
        <time>2023-11-05T21:38:49Z</time>
      </trkpt>
      <trkpt lat="46.58948" lon="-1.40075">
        <ele>61</ele>
        <time>2023-11-05T21:40:53Z</time>
      </trkpt>
      <trkpt lat="46.5891" lon="-1.40028">
        <ele>62</ele>
        <time>2023-11-05T21:42:00Z</time>
      </trkpt>
      <trkpt lat="46.58795" lon="-1.40165">
        <ele>62</ele>
        <time>2023-11-05T21:45:18Z</time>
      </trkpt>
      <trkpt lat="46.58842" lon="-1.40243">
        <ele>59</ele>
        <time>2023-11-05T21:46:53Z</time>
      </trkpt>
      <trkpt lat="46.58783" lon="-1.4032">
        <ele>59</ele>
        <time>2023-11-05T21:48:39Z</time>
      </trkpt>
      <trkpt lat="46.58803" lon="-1.40565">
        <ele>62</ele>
        <time>2023-11-05T21:52:25Z</time>
      </trkpt>
      <trkpt lat="46.58904" lon="-1.40526">
        <ele>61</ele>
        <time>2023-11-05T21:54:45Z</time>
      </trkpt>
      <trkpt lat="46.58951" lon="-1.40603">
        <ele>59</ele>
        <time>2023-11-05T21:56:19Z</time>
      </trkpt>
      <trkpt lat="46.59063" lon="-1.40668">
        <ele>58</ele>
        <time>2023-11-05T21:59:00Z</time>
      </trkpt>
      <trkpt lat="46.59184" lon="-1.40625">
        <ele>59</ele>
        <time>2023-11-05T22:01:46Z</time>
      </trkpt>
      <trkpt lat="46.5934" lon="-1.40792">
        <ele>65</ele>
        <time>2023-11-05T22:06:05Z</time>
      </trkpt>
      <trkpt lat="46.59494" lon="-1.40959">
        <ele>67</ele>
        <time>2023-11-05T22:10:21Z</time>
      </trkpt>
      <trkpt lat="46.59535" lon="-1.41054">
        <ele>67</ele>
        <time>2023-11-05T22:12:04Z</time>
      </trkpt>
      <trkpt lat="46.5975" lon="-1.41195">
        <ele>66</ele>
        <time>2023-11-05T22:17:18Z</time>
      </trkpt>
      <trkpt lat="46.59871" lon="-1.41183">
        <ele>66</ele>
        <time>2023-11-05T22:20:00Z</time>
      </trkpt>
      <trkpt lat="46.60057" lon="-1.4135">
        <ele>62</ele>
        <time>2023-11-05T22:24:52Z</time>
      </trkpt>
      <trkpt lat="46.60281" lon="-1.4147">
        <ele>57</ele>
        <time>2023-11-05T22:30:10Z</time>
      </trkpt>
      <trkpt lat="46.60446" lon="-1.41715">
        <ele>55</ele>
        <time>2023-11-05T22:35:25Z</time>
      </trkpt>
      <trkpt lat="46.60664" lon="-1.41929">
        <ele>57</ele>
        <time>2023-11-05T22:41:16Z</time>
      </trkpt>
      <trkpt lat="46.60593" lon="-1.42045">
        <ele>59</ele>
        <time>2023-11-05T22:43:38Z</time>
      </trkpt>
      <trkpt lat="46.60617" lon="-1.42191">
        <ele>57</ele>
        <time>2023-11-05T22:45:56Z</time>
      </trkpt>
      <trkpt lat="46.60862" lon="-1.4247">
        <ele>54</ele>
        <time>2023-11-05T22:52:51Z</time>
      </trkpt>
      <trkpt lat="46.60997" lon="-1.42573">
        <ele>50</ele>
        <time>2023-11-05T22:56:14Z</time>
      </trkpt>
      <trkpt lat="46.61121" lon="-1.42358">
        <ele>51</ele>
        <time>2023-11-05T23:00:32Z</time>
      </trkpt>
      <trkpt lat="46.61672" lon="-1.42251">
        <ele>52</ele>
        <time>2023-11-05T23:12:54Z</time>
      </trkpt>
      <trkpt lat="46.61761" lon="-1.42337">
        <ele>49</ele>
        <time>2023-11-05T23:15:16Z</time>
      </trkpt>
      <trkpt lat="46.61849" lon="-1.42268">
        <ele>45</ele>
        <time>2023-11-05T23:17:30Z</time>
      </trkpt>
      <trkpt lat="46.61949" lon="-1.4226">
        <ele>42</ele>
        <time>2023-11-05T23:19:43Z</time>
      </trkpt>
      <trkpt lat="46.62003" lon="-1.42122">
        <ele>43</ele>
        <time>2023-11-05T23:22:09Z</time>
      </trkpt>
      <trkpt lat="46.61994" lon="-1.42067">
        <ele>43</ele>
        <time>2023-11-05T23:23:01Z</time>
      </trkpt>
      <trkpt lat="46.61832" lon="-1.42135">
        <ele>48</ele>
        <time>2023-11-05T23:26:46Z</time>
      </trkpt>
      <trkpt lat="46.61675" lon="-1.41886">
        <ele>52</ele>
        <time>2023-11-05T23:31:55Z</time>
      </trkpt>
      <trkpt lat="46.61581" lon="-1.41689">
        <ele>50</ele>
        <time>2023-11-05T23:35:35Z</time>
      </trkpt>
      <trkpt lat="46.61507" lon="-1.4144">
        <ele>43</ele>
        <time>2023-11-05T23:39:44Z</time>
      </trkpt>
      <trkpt lat="46.61678" lon="-1.41298">
        <ele>42</ele>
        <time>2023-11-05T23:44:07Z</time>
      </trkpt>
      <trkpt lat="46.61708" lon="-1.41148">
        <ele>36</ele>
        <time>2023-11-05T23:46:30Z</time>
      </trkpt>
      <trkpt lat="46.61826" lon="-1.41041">
        <ele>33</ele>
        <time>2023-11-05T23:49:35Z</time>
      </trkpt>
      <trkpt lat="46.61808" lon="-1.40788">
        <ele>33</ele>
        <time>2023-11-05T23:53:28Z</time>
      </trkpt>
      <trkpt lat="46.61743" lon="-1.40535">
        <ele>32</ele>
        <time>2023-11-05T23:57:36Z</time>
      </trkpt>
      <trkpt lat="46.61664" lon="-1.40505">
        <ele>33</ele>
        <time>2023-11-05T23:59:25Z</time>
      </trkpt>
      <trkpt lat="46.61513" lon="-1.40075">
        <ele>34</ele>
        <time>2023-11-06T00:06:48Z</time>
      </trkpt>
      <trkpt lat="46.61277" lon="-1.40002">
        <ele>34</ele>
        <time>2023-11-06T00:12:10Z</time>
      </trkpt>
      <trkpt lat="46.61236" lon="-1.39891">
        <ele>33</ele>
        <time>2023-11-06T00:14:05Z</time>
      </trkpt>
      <trkpt lat="46.61124" lon="-1.39822">
        <ele>32</ele>
        <time>2023-11-06T00:16:47Z</time>
      </trkpt>
      <trkpt lat="46.61151" lon="-1.39663">
        <ele>35</ele>
        <time>2023-11-06T00:19:18Z</time>
      </trkpt>
      <trkpt lat="46.60977" lon="-1.39522">
        <ele>39</ele>
        <time>2023-11-06T00:23:43Z</time>
      </trkpt>
      <trkpt lat="46.60688" lon="-1.39221">
        <ele>36</ele>
        <time>2023-11-06T00:31:38Z</time>
      </trkpt>
      <trkpt lat="46.60588" lon="-1.39286">
        <ele>36</ele>
        <time>2023-11-06T00:34:04Z</time>
      </trkpt>
      <trkpt lat="46.60502" lon="-1.39372">
        <ele>36</ele>
        <time>2023-11-06T00:36:23Z</time>
      </trkpt>
    </trkseg>
  </trk>
</gpx>